sensor_id;sensor_type;location;lat;lon;timestamp;P1;durP1;ratioP1;P2;durP2;ratioP2
57111;SDS011;42992;49.084;19.300;2022-11-15T00:01:21;178.27;;;39.63;;
57111;SDS011;42992;49.084;19.300;2022-11-15T00:03:48;132.98;;;37.10;;
57111;SDS011;42992;49.084;19.300;2022-11-15T00:06:15;204.45;;;41.92;;
57111;SDS011;42992;49.084;19.300;2022-11-15T00:08:41;159.32;;;38.40;;
57111;SDS011;42992;49.084;19.300;2022-11-15T00:11:06;109.57;;;35.20;;
57111;SDS011;42992;49.084;19.300;2022-11-15T00:13:32;128.95;;;33.80;;
57111;SDS011;42992;49.084;19.300;2022-11-15T00:15:57;110.90;;;32.97;;
57111;SDS011;42992;49.084;19.300;2022-11-15T00:18:23;89.82;;;33.38;;
57111;SDS011;42992;49.084;19.300;2022-11-15T00:20:48;135.23;;;36.13;;
57111;SDS011;42992;49.084;19.300;2022-11-15T00:23:14;131.88;;;36.75;;
57111;SDS011;42992;49.084;19.300;2022-11-15T00:25:39;128.82;;;34.50;;
57111;SDS011;42992;49.084;19.300;2022-11-15T00:28:04;124.70;;;34.08;;
57111;SDS011;42992;49.084;19.300;2022-11-15T00:30:29;164.07;;;36.03;;
57111;SDS011;42992;49.084;19.300;2022-11-15T00:32:55;141.88;;;34.30;;
57111;SDS011;42992;49.084;19.300;2022-11-15T00:35:21;223.40;;;41.88;;
57111;SDS011;42992;49.084;19.300;2022-11-15T00:37:46;128.02;;;37.80;;
57111;SDS011;42992;49.084;19.300;2022-11-15T00:40:12;187.15;;;38.13;;
57111;SDS011;42992;49.084;19.300;2022-11-15T00:42:39;208.27;;;41.45;;
57111;SDS011;42992;49.084;19.300;2022-11-15T00:45:05;155.90;;;40.35;;
57111;SDS011;42992;49.084;19.300;2022-11-15T00:47:30;129.65;;;36.63;;
57111;SDS011;42992;49.084;19.300;2022-11-15T00:49:56;120.80;;;35.03;;
57111;SDS011;42992;49.084;19.300;2022-11-15T00:52:21;137.15;;;36.03;;
57111;SDS011;42992;49.084;19.300;2022-11-15T00:54:46;123.47;;;35.10;;
57111;SDS011;42992;49.084;19.300;2022-11-15T00:57:13;102.82;;;33.63;;
57111;SDS011;42992;49.084;19.300;2022-11-15T00:59:38;90.85;;;31.95;;
57111;SDS011;42992;49.084;19.300;2022-11-15T01:02:03;79.50;;;26.75;;
57111;SDS011;42992;49.084;19.300;2022-11-15T01:04:28;70.90;;;24.85;;
57111;SDS011;42992;49.084;19.300;2022-11-15T01:06:54;66.72;;;23.95;;
57111;SDS011;42992;49.084;19.300;2022-11-15T01:09:19;77.05;;;24.50;;
57111;SDS011;42992;49.084;19.300;2022-11-15T01:11:44;62.03;;;24.58;;
57111;SDS011;42992;49.084;19.300;2022-11-15T01:14:09;67.78;;;23.88;;
57111;SDS011;42992;49.084;19.300;2022-11-15T01:16:35;73.82;;;24.33;;
57111;SDS011;42992;49.084;19.300;2022-11-15T01:19:00;68.28;;;22.83;;
57111;SDS011;42992;49.084;19.300;2022-11-15T01:21:25;76.40;;;25.48;;
57111;SDS011;42992;49.084;19.300;2022-11-15T01:23:54;74.93;;;26.08;;
57111;SDS011;42992;49.084;19.300;2022-11-15T01:26:20;86.60;;;25.10;;
57111;SDS011;42992;49.084;19.300;2022-11-15T01:28:45;76.35;;;25.48;;
57111;SDS011;42992;49.084;19.300;2022-11-15T01:31:15;69.85;;;24.75;;
57111;SDS011;42992;49.084;19.300;2022-11-15T01:33:40;82.57;;;25.10;;
57111;SDS011;42992;49.084;19.300;2022-11-15T01:36:07;89.72;;;23.63;;
57111;SDS011;42992;49.084;19.300;2022-11-15T01:38:33;83.72;;;24.38;;
57111;SDS011;42992;49.084;19.300;2022-11-15T01:40:58;96.28;;;27.17;;
57111;SDS011;42992;49.084;19.300;2022-11-15T01:43:41;116.93;;;25.70;;
57111;SDS011;42992;49.084;19.300;2022-11-15T01:48:44;93.50;;;24.42;;
57111;SDS011;42992;49.084;19.300;2022-11-15T01:51:10;61.33;;;22.77;;
57111;SDS011;42992;49.084;19.300;2022-11-15T01:53:37;79.20;;;23.10;;
57111;SDS011;42992;49.084;19.300;2022-11-15T01:56:04;74.15;;;23.92;;
57111;SDS011;42992;49.084;19.300;2022-11-15T01:58:30;55.97;;;22.00;;
57111;SDS011;42992;49.084;19.300;2022-11-15T02:00:56;71.20;;;23.48;;
57111;SDS011;42992;49.084;19.300;2022-11-15T02:03:22;82.65;;;24.13;;
57111;SDS011;42992;49.084;19.300;2022-11-15T02:05:51;76.20;;;21.58;;
57111;SDS011;42992;49.084;19.300;2022-11-15T02:08:16;77.18;;;22.73;;
57111;SDS011;42992;49.084;19.300;2022-11-15T02:10:45;57.20;;;23.48;;
57111;SDS011;42992;49.084;19.300;2022-11-15T02:13:10;85.07;;;23.90;;
57111;SDS011;42992;49.084;19.300;2022-11-15T02:15:38;87.13;;;23.45;;
57111;SDS011;42992;49.084;19.300;2022-11-15T02:30:47;116.88;;;27.08;;
57111;SDS011;42992;49.084;19.300;2022-11-15T02:33:25;56.50;;;22.45;;
57111;SDS011;42992;49.084;19.300;2022-11-15T02:39:03;84.88;;;25.90;;
57111;SDS011;42992;49.084;19.300;2022-11-15T02:44:14;78.63;;;27.73;;
57111;SDS011;42992;49.084;19.300;2022-11-15T02:46:48;107.53;;;27.90;;
57111;SDS011;42992;49.084;19.300;2022-11-15T02:49:34;82.63;;;25.58;;
57111;SDS011;42992;49.084;19.300;2022-11-15T02:52:00;70.72;;;26.50;;
57111;SDS011;42992;49.084;19.300;2022-11-15T02:54:26;60.83;;;25.58;;
57111;SDS011;42992;49.084;19.300;2022-11-15T02:56:56;90.60;;;24.30;;
57111;SDS011;42992;49.084;19.300;2022-11-15T03:01:55;72.30;;;23.48;;
57111;SDS011;42992;49.084;19.300;2022-11-15T03:07:02;62.63;;;22.42;;
57111;SDS011;42992;49.084;19.300;2022-11-15T03:09:36;85.03;;;23.98;;
57111;SDS011;42992;49.084;19.300;2022-11-15T03:12:07;65.10;;;22.48;;
57111;SDS011;42992;49.084;19.300;2022-11-15T03:14:34;68.10;;;23.70;;
57111;SDS011;42992;49.084;19.300;2022-11-15T03:19:45;57.22;;;23.17;;
57111;SDS011;42992;49.084;19.300;2022-11-15T03:22:13;66.80;;;22.98;;
57111;SDS011;42992;49.084;19.300;2022-11-15T03:24:39;80.53;;;23.67;;
57111;SDS011;42992;49.084;19.300;2022-11-15T03:27:05;70.20;;;23.10;;
57111;SDS011;42992;49.084;19.300;2022-11-15T03:29:32;51.47;;;21.38;;
57111;SDS011;42992;49.084;19.300;2022-11-15T03:31:59;62.80;;;22.88;;
57111;SDS011;42992;49.084;19.300;2022-11-15T03:34:27;59.97;;;21.42;;
57111;SDS011;42992;49.084;19.300;2022-11-15T03:36:53;48.53;;;22.15;;
57111;SDS011;42992;49.084;19.300;2022-11-15T03:39:19;49.90;;;21.70;;
57111;SDS011;42992;49.084;19.300;2022-11-15T03:41:50;53.03;;;22.30;;
57111;SDS011;42992;49.084;19.300;2022-11-15T03:47:00;62.22;;;22.27;;
57111;SDS011;42992;49.084;19.300;2022-11-15T03:49:29;66.15;;;22.42;;
57111;SDS011;42992;49.084;19.300;2022-11-15T03:51:56;49.63;;;20.60;;
57111;SDS011;42992;49.084;19.300;2022-11-15T03:54:22;72.97;;;22.73;;
57111;SDS011;42992;49.084;19.300;2022-11-15T03:56:47;54.38;;;21.05;;
57111;SDS011;42992;49.084;19.300;2022-11-15T03:59:12;42.50;;;20.88;;
57111;SDS011;42992;49.084;19.300;2022-11-15T04:01:38;46.67;;;19.90;;
57111;SDS011;42992;49.084;19.300;2022-11-15T04:04:03;51.70;;;19.88;;
57111;SDS011;42992;49.084;19.300;2022-11-15T04:06:28;47.10;;;21.30;;
57111;SDS011;42992;49.084;19.300;2022-11-15T04:08:53;44.58;;;21.48;;
57111;SDS011;42992;49.084;19.300;2022-11-15T04:11:19;44.53;;;21.45;;
57111;SDS011;42992;49.084;19.300;2022-11-15T04:13:44;55.13;;;20.48;;
57111;SDS011;42992;49.084;19.300;2022-11-15T04:16:09;51.90;;;20.85;;
57111;SDS011;42992;49.084;19.300;2022-11-15T04:18:34;41.60;;;20.40;;
57111;SDS011;42992;49.084;19.300;2022-11-15T04:21:15;50.45;;;20.23;;
57111;SDS011;42992;49.084;19.300;2022-11-15T04:23:59;51.58;;;19.75;;
57111;SDS011;42992;49.084;19.300;2022-11-15T04:26:30;54.08;;;20.98;;
57111;SDS011;42992;49.084;19.300;2022-11-15T04:28:55;51.65;;;20.40;;
57111;SDS011;42992;49.084;19.300;2022-11-15T04:34:30;55.97;;;22.67;;
57111;SDS011;42992;49.084;19.300;2022-11-15T04:36:56;46.50;;;20.50;;
57111;SDS011;42992;49.084;19.300;2022-11-15T04:39:41;42.47;;;19.20;;
57111;SDS011;42992;49.084;19.300;2022-11-15T04:42:08;43.72;;;18.63;;
57111;SDS011;42992;49.084;19.300;2022-11-15T04:44:33;53.05;;;20.15;;
57111;SDS011;42992;49.084;19.300;2022-11-15T04:46:59;45.50;;;19.92;;
57111;SDS011;42992;49.084;19.300;2022-11-15T04:49:24;46.33;;;19.25;;
57111;SDS011;42992;49.084;19.300;2022-11-15T04:51:49;39.60;;;18.55;;
57111;SDS011;42992;49.084;19.300;2022-11-15T04:54:14;32.53;;;17.30;;
57111;SDS011;42992;49.084;19.300;2022-11-15T04:56:40;46.63;;;18.92;;
57111;SDS011;42992;49.084;19.300;2022-11-15T04:59:05;46.50;;;19.20;;
57111;SDS011;42992;49.084;19.300;2022-11-15T05:01:30;38.45;;;19.10;;
57111;SDS011;42992;49.084;19.300;2022-11-15T05:03:56;37.13;;;19.15;;
57111;SDS011;42992;49.084;19.300;2022-11-15T05:06:40;40.13;;;18.65;;
57111;SDS011;42992;49.084;19.300;2022-11-15T05:09:05;39.83;;;19.30;;
57111;SDS011;42992;49.084;19.300;2022-11-15T05:11:30;48.60;;;19.30;;
57111;SDS011;42992;49.084;19.300;2022-11-15T05:13:56;38.05;;;19.58;;
57111;SDS011;42992;49.084;19.300;2022-11-15T05:16:21;41.60;;;19.65;;
57111;SDS011;42992;49.084;19.300;2022-11-15T05:18:50;39.03;;;19.98;;
57111;SDS011;42992;49.084;19.300;2022-11-15T05:21:15;38.90;;;19.20;;
57111;SDS011;42992;49.084;19.300;2022-11-15T05:23:40;36.25;;;18.75;;
57111;SDS011;42992;49.084;19.300;2022-11-15T05:26:06;36.88;;;19.30;;
57111;SDS011;42992;49.084;19.300;2022-11-15T05:28:32;36.47;;;19.42;;
57111;SDS011;42992;49.084;19.300;2022-11-15T05:31:08;49.85;;;20.92;;
57111;SDS011;42992;49.084;19.300;2022-11-15T05:33:33;44.63;;;19.50;;
57111;SDS011;42992;49.084;19.300;2022-11-15T05:36:00;50.47;;;20.83;;
57111;SDS011;42992;49.084;19.300;2022-11-15T05:38:26;36.97;;;21.20;;
57111;SDS011;42992;49.084;19.300;2022-11-15T05:40:51;41.65;;;20.67;;
57111;SDS011;42992;49.084;19.300;2022-11-15T05:43:18;33.25;;;19.40;;
57111;SDS011;42992;49.084;19.300;2022-11-15T05:45:43;35.30;;;19.10;;
57111;SDS011;42992;49.084;19.300;2022-11-15T05:48:08;32.83;;;18.23;;
57111;SDS011;42992;49.084;19.300;2022-11-15T05:50:35;36.78;;;19.08;;
57111;SDS011;42992;49.084;19.300;2022-11-15T05:53:01;38.95;;;19.33;;
57111;SDS011;42992;49.084;19.300;2022-11-15T05:55:27;34.95;;;19.30;;
57111;SDS011;42992;49.084;19.300;2022-11-15T05:57:52;35.85;;;17.48;;
57111;SDS011;42992;49.084;19.300;2022-11-15T06:00:17;43.00;;;19.98;;
57111;SDS011;42992;49.084;19.300;2022-11-15T06:02:43;32.45;;;18.50;;
57111;SDS011;42992;49.084;19.300;2022-11-15T06:05:08;34.65;;;18.05;;
57111;SDS011;42992;49.084;19.300;2022-11-15T06:07:33;31.67;;;17.52;;
57111;SDS011;42992;49.084;19.300;2022-11-15T06:09:58;28.98;;;17.25;;
57111;SDS011;42992;49.084;19.300;2022-11-15T06:12:24;33.50;;;18.42;;
57111;SDS011;42992;49.084;19.300;2022-11-15T06:14:49;35.78;;;18.05;;
57111;SDS011;42992;49.084;19.300;2022-11-15T06:17:14;34.70;;;19.38;;
57111;SDS011;42992;49.084;19.300;2022-11-15T06:19:39;34.80;;;18.80;;
57111;SDS011;42992;49.084;19.300;2022-11-15T06:22:05;41.10;;;18.50;;
57111;SDS011;42992;49.084;19.300;2022-11-15T06:24:30;32.90;;;17.75;;
57111;SDS011;42992;49.084;19.300;2022-11-15T06:26:55;28.95;;;17.42;;
57111;SDS011;42992;49.084;19.300;2022-11-15T06:29:20;31.73;;;16.92;;
57111;SDS011;42992;49.084;19.300;2022-11-15T06:31:46;38.22;;;18.88;;
57111;SDS011;42992;49.084;19.300;2022-11-15T06:34:11;35.10;;;19.33;;
57111;SDS011;42992;49.084;19.300;2022-11-15T06:36:36;37.42;;;19.42;;
57111;SDS011;42992;49.084;19.300;2022-11-15T06:39:05;32.13;;;18.70;;
57111;SDS011;42992;49.084;19.300;2022-11-15T06:41:34;33.63;;;19.50;;
57111;SDS011;42992;49.084;19.300;2022-11-15T06:43:59;37.38;;;18.48;;
57111;SDS011;42992;49.084;19.300;2022-11-15T06:46:25;29.90;;;17.23;;
57111;SDS011;42992;49.084;19.300;2022-11-15T06:48:51;33.47;;;17.40;;
57111;SDS011;42992;49.084;19.300;2022-11-15T06:51:16;32.75;;;18.00;;
57111;SDS011;42992;49.084;19.300;2022-11-15T06:53:41;29.75;;;17.58;;
57111;SDS011;42992;49.084;19.300;2022-11-15T06:56:07;27.25;;;16.88;;
57111;SDS011;42992;49.084;19.300;2022-11-15T06:58:33;27.48;;;17.48;;
57111;SDS011;42992;49.084;19.300;2022-11-15T07:01:03;27.35;;;17.42;;
57111;SDS011;42992;49.084;19.300;2022-11-15T07:03:28;35.85;;;18.17;;
57111;SDS011;42992;49.084;19.300;2022-11-15T07:05:54;30.80;;;17.05;;
57111;SDS011;42992;49.084;19.300;2022-11-15T07:08:20;33.03;;;18.60;;
57111;SDS011;42992;49.084;19.300;2022-11-15T07:10:45;46.78;;;20.13;;
57111;SDS011;42992;49.084;19.300;2022-11-15T07:13:10;31.73;;;19.20;;
57111;SDS011;42992;49.084;19.300;2022-11-15T07:15:36;37.63;;;19.52;;
57111;SDS011;42992;49.084;19.300;2022-11-15T07:18:04;30.75;;;19.13;;
57111;SDS011;42992;49.084;19.300;2022-11-15T07:20:29;30.73;;;18.63;;
57111;SDS011;42992;49.084;19.300;2022-11-15T07:23:01;34.58;;;19.25;;
57111;SDS011;42992;49.084;19.300;2022-11-15T07:25:27;33.20;;;19.05;;
57111;SDS011;42992;49.084;19.300;2022-11-15T07:27:55;36.33;;;19.42;;
57111;SDS011;42992;49.084;19.300;2022-11-15T07:30:21;38.97;;;20.20;;
57111;SDS011;42992;49.084;19.300;2022-11-15T07:32:46;30.85;;;19.45;;
57111;SDS011;42992;49.084;19.300;2022-11-15T07:35:11;35.75;;;20.83;;
57111;SDS011;42992;49.084;19.300;2022-11-15T07:37:37;34.05;;;20.23;;
57111;SDS011;42992;49.084;19.300;2022-11-15T07:40:02;41.83;;;20.70;;
57111;SDS011;42992;49.084;19.300;2022-11-15T07:42:27;31.83;;;18.65;;
57111;SDS011;42992;49.084;19.300;2022-11-15T07:45:14;31.38;;;18.00;;
57111;SDS011;42992;49.084;19.300;2022-11-15T07:47:39;31.08;;;17.65;;
57111;SDS011;42992;49.084;19.300;2022-11-15T07:50:05;28.77;;;16.98;;
57111;SDS011;42992;49.084;19.300;2022-11-15T07:52:30;29.20;;;17.73;;
57111;SDS011;42992;49.084;19.300;2022-11-15T07:54:55;28.15;;;18.00;;
57111;SDS011;42992;49.084;19.300;2022-11-15T07:57:20;30.63;;;17.77;;
57111;SDS011;42992;49.084;19.300;2022-11-15T07:59:46;29.65;;;17.40;;
57111;SDS011;42992;49.084;19.300;2022-11-15T08:02:11;28.90;;;17.27;;
57111;SDS011;42992;49.084;19.300;2022-11-15T08:04:36;37.00;;;18.25;;
57111;SDS011;42992;49.084;19.300;2022-11-15T08:07:01;27.42;;;17.42;;
57111;SDS011;42992;49.084;19.300;2022-11-15T08:09:27;27.42;;;17.25;;
57111;SDS011;42992;49.084;19.300;2022-11-15T08:11:52;30.92;;;18.58;;
57111;SDS011;42992;49.084;19.300;2022-11-15T08:14:17;29.08;;;17.98;;
57111;SDS011;42992;49.084;19.300;2022-11-15T08:16:42;29.40;;;18.27;;
57111;SDS011;42992;49.084;19.300;2022-11-15T08:19:08;28.70;;;18.23;;
57111;SDS011;42992;49.084;19.300;2022-11-15T08:21:33;29.73;;;19.25;;
57111;SDS011;42992;49.084;19.300;2022-11-15T08:23:58;26.00;;;18.05;;
57111;SDS011;42992;49.084;19.300;2022-11-15T08:26:23;24.48;;;16.42;;
57111;SDS011;42992;49.084;19.300;2022-11-15T08:28:51;27.55;;;18.58;;
57111;SDS011;42992;49.084;19.300;2022-11-15T08:31:17;37.90;;;20.90;;
57111;SDS011;42992;49.084;19.300;2022-11-15T08:33:43;32.20;;;19.25;;
57111;SDS011;42992;49.084;19.300;2022-11-15T08:36:10;36.20;;;20.17;;
57111;SDS011;42992;49.084;19.300;2022-11-15T08:38:36;32.15;;;19.85;;
57111;SDS011;42992;49.084;19.300;2022-11-15T08:41:02;32.10;;;19.80;;
57111;SDS011;42992;49.084;19.300;2022-11-15T08:43:28;41.83;;;21.90;;
57111;SDS011;42992;49.084;19.300;2022-11-15T08:45:57;34.75;;;22.90;;
57111;SDS011;42992;49.084;19.300;2022-11-15T08:48:22;33.88;;;22.17;;
57111;SDS011;42992;49.084;19.300;2022-11-15T08:50:48;36.88;;;23.85;;
57111;SDS011;42992;49.084;19.300;2022-11-15T08:53:13;37.58;;;23.65;;
57111;SDS011;42992;49.084;19.300;2022-11-15T08:55:40;40.58;;;25.80;;
57111;SDS011;42992;49.084;19.300;2022-11-15T08:58:05;35.85;;;22.83;;
57111;SDS011;42992;49.084;19.300;2022-11-15T09:00:30;34.75;;;22.17;;
57111;SDS011;42992;49.084;19.300;2022-11-15T09:02:56;37.50;;;22.75;;
57111;SDS011;42992;49.084;19.300;2022-11-15T09:05:21;37.13;;;22.73;;
57111;SDS011;42992;49.084;19.300;2022-11-15T09:07:46;34.20;;;22.05;;
57111;SDS011;42992;49.084;19.300;2022-11-15T09:10:12;35.65;;;21.42;;
57111;SDS011;42992;49.084;19.300;2022-11-15T09:12:37;37.10;;;22.70;;
57111;SDS011;42992;49.084;19.300;2022-11-15T09:15:03;33.60;;;20.73;;
57111;SDS011;42992;49.084;19.300;2022-11-15T09:17:29;31.52;;;20.02;;
57111;SDS011;42992;49.084;19.300;2022-11-15T09:19:54;27.77;;;18.70;;
57111;SDS011;42992;49.084;19.300;2022-11-15T09:22:19;38.47;;;19.45;;
57111;SDS011;42992;49.084;19.300;2022-11-15T09:24:44;29.30;;;18.33;;
57111;SDS011;42992;49.084;19.300;2022-11-15T09:27:10;33.88;;;20.00;;
57111;SDS011;42992;49.084;19.300;2022-11-15T09:29:35;30.70;;;18.27;;
57111;SDS011;42992;49.084;19.300;2022-11-15T09:32:03;30.08;;;18.38;;
57111;SDS011;42992;49.084;19.300;2022-11-15T09:34:29;29.98;;;18.17;;
57111;SDS011;42992;49.084;19.300;2022-11-15T09:36:54;28.63;;;18.20;;
57111;SDS011;42992;49.084;19.300;2022-11-15T09:39:19;28.95;;;18.17;;
57111;SDS011;42992;49.084;19.300;2022-11-15T09:44:37;32.00;;;18.70;;
57111;SDS011;42992;49.084;19.300;2022-11-15T09:49:42;30.45;;;19.30;;
57111;SDS011;42992;49.084;19.300;2022-11-15T09:52:08;36.42;;;20.70;;
57111;SDS011;42992;49.084;19.300;2022-11-15T09:54:38;28.65;;;20.70;;
57111;SDS011;42992;49.084;19.300;2022-11-15T09:57:06;29.55;;;17.58;;
57111;SDS011;42992;49.084;19.300;2022-11-15T10:02:03;24.88;;;16.77;;
57111;SDS011;42992;49.084;19.300;2022-11-15T10:04:30;21.08;;;15.27;;
57111;SDS011;42992;49.084;19.300;2022-11-15T10:10:00;24.50;;;16.52;;
57111;SDS011;42992;49.084;19.300;2022-11-15T10:12:27;25.27;;;17.42;;
57111;SDS011;42992;49.084;19.300;2022-11-15T10:14:56;32.50;;;19.42;;
57111;SDS011;42992;49.084;19.300;2022-11-15T10:27:33;24.65;;;16.55;;
57111;SDS011;42992;49.084;19.300;2022-11-15T10:29:59;30.38;;;17.98;;
57111;SDS011;42992;49.084;19.300;2022-11-15T10:32:24;28.65;;;17.98;;
57111;SDS011;42992;49.084;19.300;2022-11-15T10:34:50;29.83;;;18.58;;
57111;SDS011;42992;49.084;19.300;2022-11-15T10:37:26;37.03;;;18.88;;
57111;SDS011;42992;49.084;19.300;2022-11-15T10:40:02;30.55;;;17.52;;
57111;SDS011;42992;49.084;19.300;2022-11-15T10:42:28;30.38;;;19.45;;
57111;SDS011;42992;49.084;19.300;2022-11-15T10:44:54;35.20;;;19.98;;
57111;SDS011;42992;49.084;19.300;2022-11-15T10:47:27;27.20;;;16.52;;
57111;SDS011;42992;49.084;19.300;2022-11-15T10:52:21;26.60;;;17.38;;
57111;SDS011;42992;49.084;19.300;2022-11-15T10:57:14;23.02;;;16.42;;
57111;SDS011;42992;49.084;19.300;2022-11-15T10:59:51;28.48;;;17.90;;
57111;SDS011;42992;49.084;19.300;2022-11-15T11:04:51;26.30;;;18.17;;
57111;SDS011;42992;49.084;19.300;2022-11-15T11:07:23;29.85;;;18.52;;
57111;SDS011;42992;49.084;19.300;2022-11-15T11:09:57;32.20;;;20.42;;
57111;SDS011;42992;49.084;19.300;2022-11-15T11:12:27;30.98;;;18.92;;
57111;SDS011;42992;49.084;19.300;2022-11-15T11:14:53;33.00;;;19.92;;
57111;SDS011;42992;49.084;19.300;2022-11-15T11:20:06;33.25;;;20.90;;
57111;SDS011;42992;49.084;19.300;2022-11-15T11:25:08;52.58;;;20.70;;
57111;SDS011;42992;49.084;19.300;2022-11-15T11:27:53;30.83;;;19.50;;
57111;SDS011;42992;49.084;19.300;2022-11-15T11:30:35;30.20;;;18.92;;
57111;SDS011;42992;49.084;19.300;2022-11-15T11:36:14;30.17;;;18.85;;
57111;SDS011;42992;49.084;19.300;2022-11-15T11:41:04;33.50;;;19.00;;
57111;SDS011;42992;49.084;19.300;2022-11-15T11:50:53;28.35;;;17.88;;
57111;SDS011;42992;49.084;19.300;2022-11-15T11:53:25;26.80;;;18.45;;
57111;SDS011;42992;49.084;19.300;2022-11-15T11:56:02;33.40;;;19.45;;
57111;SDS011;42992;49.084;19.300;2022-11-15T12:01:04;40.40;;;20.02;;
57111;SDS011;42992;49.084;19.300;2022-11-15T12:03:48;28.67;;;17.95;;
57111;SDS011;42992;49.084;19.300;2022-11-15T12:08:47;33.38;;;17.40;;
57111;SDS011;42992;49.084;19.300;2022-11-15T12:13:39;32.03;;;17.48;;
57111;SDS011;42992;49.084;19.300;2022-11-15T12:16:07;31.95;;;18.60;;
57111;SDS011;42992;49.084;19.300;2022-11-15T12:18:34;32.95;;;18.30;;
57111;SDS011;42992;49.084;19.300;2022-11-15T12:21:08;30.92;;;18.65;;
57111;SDS011;42992;49.084;19.300;2022-11-15T12:23:41;28.25;;;17.08;;
57111;SDS011;42992;49.084;19.300;2022-11-15T12:26:16;36.55;;;18.92;;
57111;SDS011;42992;49.084;19.300;2022-11-15T12:28:47;37.35;;;17.75;;
57111;SDS011;42992;49.084;19.300;2022-11-15T12:33:43;36.80;;;19.38;;
57111;SDS011;42992;49.084;19.300;2022-11-15T12:41:19;39.08;;;19.58;;
57111;SDS011;42992;49.084;19.300;2022-11-15T12:43:45;32.22;;;18.25;;
57111;SDS011;42992;49.084;19.300;2022-11-15T12:46:12;26.45;;;18.00;;
57111;SDS011;42992;49.084;19.300;2022-11-15T12:51:03;32.33;;;18.90;;
57111;SDS011;42992;49.084;19.300;2022-11-15T12:53:29;28.77;;;18.77;;
57111;SDS011;42992;49.084;19.300;2022-11-15T12:58:27;30.75;;;18.17;;
57111;SDS011;42992;49.084;19.300;2022-11-15T13:00:54;41.00;;;19.17;;
57111;SDS011;42992;49.084;19.300;2022-11-15T13:03:23;39.00;;;20.05;;
57111;SDS011;42992;49.084;19.300;2022-11-15T13:05:54;28.13;;;18.13;;
57111;SDS011;42992;49.084;19.300;2022-11-15T13:08:37;31.80;;;17.35;;
57111;SDS011;42992;49.084;19.300;2022-11-15T13:11:41;36.00;;;18.02;;
57111;SDS011;42992;49.084;19.300;2022-11-15T13:13:53;32.30;;;18.48;;
57111;SDS011;42992;49.084;19.300;2022-11-15T13:16:20;40.20;;;18.92;;
57111;SDS011;42992;49.084;19.300;2022-11-15T13:18:52;31.35;;;18.67;;
57111;SDS011;42992;49.084;19.300;2022-11-15T13:21:24;36.22;;;18.70;;
57111;SDS011;42992;49.084;19.300;2022-11-15T13:24:12;30.98;;;16.75;;
57111;SDS011;42992;49.084;19.300;2022-11-15T13:26:38;25.50;;;15.13;;
57111;SDS011;42992;49.084;19.300;2022-11-15T13:29:04;35.47;;;17.52;;
57111;SDS011;42992;49.084;19.300;2022-11-15T13:31:42;40.25;;;17.35;;
57111;SDS011;42992;49.084;19.300;2022-11-15T13:36:46;24.88;;;17.08;;
57111;SDS011;42992;49.084;19.300;2022-11-15T13:39:30;28.80;;;15.73;;
57111;SDS011;42992;49.084;19.300;2022-11-15T13:41:56;33.35;;;19.23;;
57111;SDS011;42992;49.084;19.300;2022-11-15T13:44:24;32.70;;;20.08;;
57111;SDS011;42992;49.084;19.300;2022-11-15T13:49:31;35.25;;;21.50;;
57111;SDS011;42992;49.084;19.300;2022-11-15T13:51:57;38.53;;;23.38;;
57111;SDS011;42992;49.084;19.300;2022-11-15T13:54:25;32.92;;;23.85;;
57111;SDS011;42992;49.084;19.300;2022-11-15T13:56:55;40.22;;;26.52;;
57111;SDS011;42992;49.084;19.300;2022-11-15T13:59:26;36.25;;;25.55;;
57111;SDS011;42992;49.084;19.300;2022-11-15T14:01:52;31.58;;;21.52;;
57111;SDS011;42992;49.084;19.300;2022-11-15T14:04:19;34.47;;;20.50;;
57111;SDS011;42992;49.084;19.300;2022-11-15T14:06:49;30.52;;;21.10;;
57111;SDS011;42992;49.084;19.300;2022-11-15T14:11:50;33.00;;;21.83;;
57111;SDS011;42992;49.084;19.300;2022-11-15T14:14:16;31.88;;;22.33;;
57111;SDS011;42992;49.084;19.300;2022-11-15T14:16:45;33.25;;;23.17;;
57111;SDS011;42992;49.084;19.300;2022-11-15T14:19:55;35.95;;;22.48;;
57111;SDS011;42992;49.084;19.300;2022-11-15T14:24:37;48.90;;;24.35;;
57111;SDS011;42992;49.084;19.300;2022-11-15T14:29:47;36.95;;;23.35;;
57111;SDS011;42992;49.084;19.300;2022-11-15T14:32:20;44.78;;;25.60;;
57111;SDS011;42992;49.084;19.300;2022-11-15T14:34:47;38.58;;;24.10;;
57111;SDS011;42992;49.084;19.300;2022-11-15T14:37:33;38.70;;;22.55;;
57111;SDS011;42992;49.084;19.300;2022-11-15T14:39:59;35.47;;;22.38;;
57111;SDS011;42992;49.084;19.300;2022-11-15T14:42:25;33.95;;;22.20;;
57111;SDS011;42992;49.084;19.300;2022-11-15T14:44:50;34.40;;;23.52;;
57111;SDS011;42992;49.084;19.300;2022-11-15T14:47:16;35.55;;;23.58;;
57111;SDS011;42992;49.084;19.300;2022-11-15T14:49:41;34.92;;;23.58;;
57111;SDS011;42992;49.084;19.300;2022-11-15T14:52:11;31.40;;;20.83;;
57111;SDS011;42992;49.084;19.300;2022-11-15T14:54:41;32.90;;;23.38;;
57111;SDS011;42992;49.084;19.300;2022-11-15T14:57:06;37.55;;;25.77;;
57111;SDS011;42992;49.084;19.300;2022-11-15T14:59:31;40.03;;;26.15;;
57111;SDS011;42992;49.084;19.300;2022-11-15T15:01:57;38.70;;;27.77;;
57111;SDS011;42992;49.084;19.300;2022-11-15T15:04:24;39.58;;;29.08;;
57111;SDS011;42992;49.084;19.300;2022-11-15T15:06:49;50.03;;;35.08;;
57111;SDS011;42992;49.084;19.300;2022-11-15T15:09:14;41.83;;;30.40;;
57111;SDS011;42992;49.084;19.300;2022-11-15T15:11:39;66.00;;;43.60;;
57111;SDS011;42992;49.084;19.300;2022-11-15T15:14:05;58.35;;;39.83;;
57111;SDS011;42992;49.084;19.300;2022-11-15T15:16:30;47.38;;;31.10;;
57111;SDS011;42992;49.084;19.300;2022-11-15T15:18:55;42.90;;;29.13;;
57111;SDS011;42992;49.084;19.300;2022-11-15T15:21:24;50.65;;;34.67;;
57111;SDS011;42992;49.084;19.300;2022-11-15T15:23:50;60.50;;;42.25;;
57111;SDS011;42992;49.084;19.300;2022-11-15T15:26:16;44.05;;;29.10;;
57111;SDS011;42992;49.084;19.300;2022-11-15T15:28:41;43.92;;;29.00;;
57111;SDS011;42992;49.084;19.300;2022-11-15T15:31:07;88.57;;;60.05;;
57111;SDS011;42992;49.084;19.300;2022-11-15T15:33:33;72.35;;;50.03;;
57111;SDS011;42992;49.084;19.300;2022-11-15T15:35:58;60.97;;;41.80;;
57111;SDS011;42992;49.084;19.300;2022-11-15T15:38:24;70.85;;;44.00;;
57111;SDS011;42992;49.084;19.300;2022-11-15T15:40:49;53.97;;;36.30;;
57111;SDS011;42992;49.084;19.300;2022-11-15T15:43:14;44.92;;;30.30;;
57111;SDS011;42992;49.084;19.300;2022-11-15T15:45:40;49.63;;;32.70;;
57111;SDS011;42992;49.084;19.300;2022-11-15T15:48:08;48.00;;;29.65;;
57111;SDS011;42992;49.084;19.300;2022-11-15T15:50:34;44.03;;;29.42;;
57111;SDS011;42992;49.084;19.300;2022-11-15T15:53:02;45.60;;;30.48;;
57111;SDS011;42992;49.084;19.300;2022-11-15T15:55:28;51.45;;;33.35;;
57111;SDS011;42992;49.084;19.300;2022-11-15T15:57:54;55.33;;;36.42;;
57111;SDS011;42992;49.084;19.300;2022-11-15T16:00:19;51.92;;;35.42;;
57111;SDS011;42992;49.084;19.300;2022-11-15T16:02:45;51.13;;;35.40;;
57111;SDS011;42992;49.084;19.300;2022-11-15T16:05:11;52.10;;;35.08;;